sensor_id;sensor_type;location;lat;lon;timestamp;pressure;altitude;pressure_sealevel;temperature;humidity
79118;BME280;68523;51.336;-0.846;2023-03-21T00:00:07;100393.40;;;9.1;100.0
79118;BME280;68523;51.336;-0.846;2023-03-21T00:05:39;100396.67;;;9.5;100.0
79118;BME280;68523;51.336;-0.846;2023-03-21T00:11:06;100389.54;;;9.3;100.0
79118;BME280;68523;51.336;-0.846;2023-03-21T00:16:05;100375.78;;;9.2;100.0
79118;BME280;68523;51.336;-0.846;2023-03-21T00:21:34;100370.28;;;8.9;100.0
79118;BME280;68523;51.336;-0.846;2023-03-21T00:26:38;100359.97;;;9.0;100.0
79118;BME280;68523;51.336;-0.846;2023-03-21T00:32:02;100357.24;;;9.0;100.0
79118;BME280;68523;51.336;-0.846;2023-03-21T00:37:05;100354.40;;;9.3;100.0
79118;BME280;68523;51.336;-0.846;2023-03-21T00:42:35;100348.26;;;9.0;100.0
79118;BME280;68523;51.336;-0.846;2023-03-21T00:47:37;100344.27;;;8.9;100.0
79118;BME280;68523;51.336;-0.846;2023-03-21T00:53:01;100330.13;;;8.9;100.0
79118;BME280;68523;51.336;-0.846;2023-03-21T00:58:04;100321.01;;;9.0;100.0
79118;BME280;68523;51.336;-0.846;2023-03-21T01:03:34;100318.76;;;8.8;100.0
79118;BME280;68523;51.336;-0.846;2023-03-21T01:08:39;100314.95;;;8.9;100.0
79118;BME280;68523;51.336;-0.846;2023-03-21T01:13:37;100306.80;;;8.6;100.0
79118;BME280;68523;51.336;-0.846;2023-03-21T01:19:03;100300.01;;;8.8;100.0
79118;BME280;68523;51.336;-0.846;2023-03-21T01:24:06;100300.93;;;8.8;100.0
79118;BME280;68523;51.336;-0.846;2023-03-21T01:29:36;100294.78;;;8.8;100.0
79118;BME280;68523;51.336;-0.846;2023-03-21T01:35:06;100288.69;;;8.6;100.0
79118;BME280;68523;51.336;-0.846;2023-03-21T01:40:36;100284.66;;;8.6;100.0
79118;BME280;68523;51.336;-0.846;2023-03-21T01:46:19;100274.33;;;8.8;99.9
79118;BME280;68523;51.336;-0.846;2023-03-21T01:51:37;100264.76;;;8.7;99.8
79118;BME280;68523;51.336;-0.846;2023-03-21T01:56:37;100257.54;;;8.6;99.8
79118;BME280;68523;51.336;-0.846;2023-03-21T02:01:36;100260.17;;;8.8;99.0
79118;BME280;68523;51.336;-0.846;2023-03-21T02:07:11;100259.85;;;8.6;99.1
79118;BME280;68523;51.336;-0.846;2023-03-21T02:12:36;100255.82;;;8.8;98.8
79118;BME280;68523;51.336;-0.846;2023-03-21T02:18:12;100247.50;;;8.5;99.5
79118;BME280;68523;51.336;-0.846;2023-03-21T02:28:39;100224.12;;;8.5;99.4
79118;BME280;68523;51.336;-0.846;2023-03-21T02:33:52;100216.10;;;8.6;99.2
79118;BME280;68523;51.336;-0.846;2023-03-21T02:39:11;100208.72;;;8.8;99.0
79118;BME280;68523;51.336;-0.846;2023-03-21T02:44:09;100203.90;;;8.6;99.0
79118;BME280;68523;51.336;-0.846;2023-03-21T02:49:41;100203.71;;;8.6;98.8
79118;BME280;68523;51.336;-0.846;2023-03-21T02:55:02;100203.54;;;8.4;98.7
79118;BME280;68523;51.336;-0.846;2023-03-21T03:00:03;100196.64;;;8.4;98.3
79118;BME280;68523;51.336;-0.846;2023-03-21T03:05:12;100189.46;;;8.3;98.6
79118;BME280;68523;51.336;-0.846;2023-03-21T03:10:47;100184.65;;;8.4;97.9
79118;BME280;68523;51.336;-0.846;2023-03-21T03:15:43;100173.67;;;8.7;97.1
79118;BME280;68523;51.336;-0.846;2023-03-21T03:21:08;100165.94;;;8.4;97.2
79118;BME280;68523;51.336;-0.846;2023-03-21T03:26:07;100160.62;;;8.4;97.1
79118;BME280;68523;51.336;-0.846;2023-03-21T03:31:36;100155.23;;;8.2;98.2
79118;BME280;68523;51.336;-0.846;2023-03-21T03:36:39;100151.63;;;8.0;99.5
79118;BME280;68523;51.336;-0.846;2023-03-21T03:42:07;100142.69;;;8.1;100.0
79118;BME280;68523;51.336;-0.846;2023-03-21T03:47:39;100130.97;;;8.1;100.0
79118;BME280;68523;51.336;-0.846;2023-03-21T03:53:10;100133.79;;;8.1;100.0
79118;BME280;68523;51.336;-0.846;2023-03-21T03:58:37;100129.96;;;8.1;100.0
79118;BME280;68523;51.336;-0.846;2023-03-21T04:04:02;100129.92;;;8.1;100.0
79118;BME280;68523;51.336;-0.846;2023-03-21T04:09:04;100130.72;;;8.1;100.0
79118;BME280;68523;51.336;-0.846;2023-03-21T04:14:33;100133.62;;;7.9;100.0
79118;BME280;68523;51.336;-0.846;2023-03-21T04:19:36;100130.47;;;8.0;100.0
79118;BME280;68523;51.336;-0.846;2023-03-21T04:25:06;100123.29;;;8.0;100.0
79118;BME280;68523;51.336;-0.846;2023-03-21T04:30:36;100114.07;;;7.8;100.0
79118;BME280;68523;51.336;-0.846;2023-03-21T04:36:06;100106.90;;;7.9;100.0
79118;BME280;68523;51.336;-0.846;2023-03-21T04:41:36;100091.62;;;7.9;100.0
79118;BME280;68523;51.336;-0.846;2023-03-21T04:47:05;100084.39;;;7.7;100.0
79118;BME280;68523;51.336;-0.846;2023-03-21T04:52:34;100080.08;;;7.9;100.0
79118;BME280;68523;51.336;-0.846;2023-03-21T04:57:38;100075.59;;;7.8;100.0
79118;BME280;68523;51.336;-0.846;2023-03-21T05:03:03;100070.66;;;7.8;100.0
79118;BME280;68523;51.336;-0.846;2023-03-21T05:08:06;100068.87;;;7.7;100.0
79118;BME280;68523;51.336;-0.846;2023-03-21T05:13:35;100067.44;;;7.6;100.0
79118;BME280;68523;51.336;-0.846;2023-03-21T05:18:37;100062.22;;;7.6;100.0
79118;BME280;68523;51.336;-0.846;2023-03-21T05:24:02;100050.49;;;7.7;100.0
79118;BME280;68523;51.336;-0.846;2023-03-21T05:29:05;100050.11;;;7.7;100.0
79118;BME280;68523;51.336;-0.846;2023-03-21T05:34:34;100044.31;;;7.7;100.0
79118;BME280;68523;51.336;-0.846;2023-03-21T05:39:36;100045.39;;;8.0;100.0
79118;BME280;68523;51.336;-0.846;2023-03-21T05:45:06;100032.56;;;7.9;100.0
79118;BME280;68523;51.336;-0.846;2023-03-21T05:50:37;100036.62;;;7.9;100.0
79118;BME280;68523;51.336;-0.846;2023-03-21T05:56:02;100035.79;;;7.8;100.0
79118;BME280;68523;51.336;-0.846;2023-03-21T06:01:05;100039.42;;;7.9;100.0
79118;BME280;68523;51.336;-0.846;2023-03-21T06:06:35;100043.76;;;7.8;100.0
79118;BME280;68523;51.336;-0.846;2023-03-21T06:11:38;100043.63;;;7.9;100.0
79118;BME280;68523;51.336;-0.846;2023-03-21T06:17:04;100052.03;;;8.0;100.0
79118;BME280;68523;51.336;-0.846;2023-03-21T06:22:34;100054.51;;;7.8;100.0
79118;BME280;68523;51.336;-0.846;2023-03-21T06:27:37;100048.75;;;8.0;100.0
79118;BME280;68523;51.336;-0.846;2023-03-21T06:33:06;100052.31;;;8.2;100.0
79118;BME280;68523;51.336;-0.846;2023-03-21T06:38:35;100040.50;;;8.0;100.0
79118;BME280;68523;51.336;-0.846;2023-03-21T06:43:38;100035.74;;;8.1;100.0
79118;BME280;68523;51.336;-0.846;2023-03-21T06:49:02;100036.13;;;8.1;100.0
79118;BME280;68523;51.336;-0.846;2023-03-21T06:54:05;100042.92;;;8.1;100.0
79118;BME280;68523;51.336;-0.846;2023-03-21T06:59:34;100033.00;;;8.1;100.0
79118;BME280;68523;51.336;-0.846;2023-03-21T07:04:37;100023.63;;;8.1;100.0
79118;BME280;68523;51.336;-0.846;2023-03-21T07:10:07;100020.52;;;8.2;100.0
79118;BME280;68523;51.336;-0.846;2023-03-21T07:15:37;100021.49;;;8.2;100.0
79118;BME280;68523;51.336;-0.846;2023-03-21T07:21:02;100018.75;;;8.3;100.0
79118;BME280;68523;51.336;-0.846;2023-03-21T07:26:05;100024.47;;;8.2;100.0
79118;BME280;68523;51.336;-0.846;2023-03-21T07:31:34;100023.49;;;8.6;100.0
79118;BME280;68523;51.336;-0.846;2023-03-21T07:36:37;100031.29;;;8.4;100.0
79118;BME280;68523;51.336;-0.846;2023-03-21T07:42:02;100027.67;;;8.9;100.0
79118;BME280;68523;51.336;-0.846;2023-03-21T07:47:05;100032.00;;;9.0;100.0
79118;BME280;68523;51.336;-0.846;2023-03-21T07:52:34;100027.90;;;9.0;100.0
79118;BME280;68523;51.336;-0.846;2023-03-21T07:57:37;100031.87;;;8.9;100.0
79118;BME280;68523;51.336;-0.846;2023-03-21T08:03:06;100029.65;;;9.0;100.0
79118;BME280;68523;51.336;-0.846;2023-03-21T08:08:36;100025.69;;;9.3;100.0
79118;BME280;68523;51.336;-0.846;2023-03-21T08:14:05;100017.96;;;9.3;100.0
79118;BME280;68523;51.336;-0.846;2023-03-21T08:19:34;100019.15;;;9.7;100.0
79118;BME280;68523;51.336;-0.846;2023-03-21T08:24:37;100007.19;;;9.7;100.0
79118;BME280;68523;51.336;-0.846;2023-03-21T08:30:02;100009.18;;;9.9;100.0
79118;BME280;68523;51.336;-0.846;2023-03-21T08:35:06;100012.33;;;9.7;100.0
79118;BME280;68523;51.336;-0.846;2023-03-21T08:40:37;100005.67;;;9.5;100.0
79118;BME280;68523;51.336;-0.846;2023-03-21T08:46:06;100005.27;;;9.5;100.0
79118;BME280;68523;51.336;-0.846;2023-03-21T08:51:35;99998.42;;;9.6;100.0
79118;BME280;68523;51.336;-0.846;2023-03-21T08:57:05;99995.73;;;9.8;100.0
79118;BME280;68523;51.336;-0.846;2023-03-21T09:02:34;100006.63;;;9.7;100.0
79118;BME280;68523;51.336;-0.846;2023-03-21T09:07:37;100014.07;;;9.6;100.0
79118;BME280;68523;51.336;-0.846;2023-03-21T09:13:02;100005.92;;;9.8;100.0
79118;BME280;68523;51.336;-0.846;2023-03-21T09:18:05;100001.65;;;9.7;100.0
79118;BME280;68523;51.336;-0.846;2023-03-21T09:23:34;100002.71;;;9.8;100.0
79118;BME280;68523;51.336;-0.846;2023-03-21T09:28:37;99999.76;;;9.7;100.0
79118;BME280;68523;51.336;-0.846;2023-03-21T09:34:06;100000.32;;;9.7;100.0
79118;BME280;68523;51.336;-0.846;2023-03-21T09:39:35;100000.72;;;9.8;100.0
79118;BME280;68523;51.336;-0.846;2023-03-21T09:45:11;99996.13;;;10.4;99.5
79118;BME280;68523;51.336;-0.846;2023-03-21T09:50:35;99991.47;;;10.3;97.6
79118;BME280;68523;51.336;-0.846;2023-03-21T09:56:07;99994.41;;;10.4;96.2
79118;BME280;68523;51.336;-0.846;2023-03-21T10:01:09;99991.35;;;10.6;94.1
79118;BME280;68523;51.336;-0.846;2023-03-21T10:06:37;99996.86;;;10.4;93.4
79118;BME280;68523;51.336;-0.846;2023-03-21T10:11:42;99993.26;;;10.4;93.5
79118;BME280;68523;51.336;-0.846;2023-03-21T10:17:07;99996.69;;;10.8;93.0
79118;BME280;68523;51.336;-0.846;2023-03-21T10:22:02;99993.53;;;11.3;90.6
79118;BME280;68523;51.336;-0.846;2023-03-21T10:27:05;99994.03;;;11.3;90.7
79118;BME280;68523;51.336;-0.846;2023-03-21T10:32:34;99981.57;;;11.4;90.4
79118;BME280;68523;51.336;-0.846;2023-03-21T10:37:37;99971.95;;;11.2;90.0
79118;BME280;68523;51.336;-0.846;2023-03-21T10:43:15;99965.33;;;11.4;90.0
79118;BME280;68523;51.336;-0.846;2023-03-21T10:48:06;99967.93;;;11.5;90.2
79118;BME280;68523;51.336;-0.846;2023-03-21T10:53:13;99963.62;;;11.3;89.8
79118;BME280;68523;51.336;-0.846;2023-03-21T10:58:35;99956.26;;;11.5;89.1
79118;BME280;68523;51.336;-0.846;2023-03-21T11:03:36;99950.28;;;12.0;88.5
79118;BME280;68523;51.336;-0.846;2023-03-21T11:08:39;99954.63;;;11.7;88.5
79118;BME280;68523;51.336;-0.846;2023-03-21T11:13:40;99958.96;;;11.8;89.5
79118;BME280;68523;51.336;-0.846;2023-03-21T11:18:41;99945.58;;;11.8;90.9
79118;BME280;68523;51.336;-0.846;2023-03-21T11:24:11;99945.99;;;11.4;91.3
79118;BME280;68523;51.336;-0.846;2023-03-21T11:29:37;99948.43;;;11.4;91.9
79118;BME280;68523;51.336;-0.846;2023-03-21T11:35:05;99949.50;;;11.4;90.4
79118;BME280;68523;51.336;-0.846;2023-03-21T11:40:14;99948.49;;;11.3;90.5
79118;BME280;68523;51.336;-0.846;2023-03-21T11:45:35;99950.52;;;11.3;90.4
79118;BME280;68523;51.336;-0.846;2023-03-21T11:50:40;99953.67;;;11.9;88.8
79118;BME280;68523;51.336;-0.846;2023-03-21T11:56:17;99955.40;;;11.8;87.5
79118;BME280;68523;51.336;-0.846;2023-03-21T12:01:12;99953.55;;;11.7;87.0
79118;BME280;68523;51.336;-0.846;2023-03-21T12:06:36;99950.63;;;11.7;87.7
79118;BME280;68523;51.336;-0.846;2023-03-21T12:11:39;99944.28;;;11.5;87.8
79118;BME280;68523;51.336;-0.846;2023-03-21T12:16:44;99933.95;;;11.9;86.9
79118;BME280;68523;51.336;-0.846;2023-03-21T12:22:11;99927.04;;;11.9;85.9
79118;BME280;68523;51.336;-0.846;2023-03-21T12:27:41;99928.02;;;12.8;83.3
79118;BME280;68523;51.336;-0.846;2023-03-21T12:32:49;99926.53;;;12.2;83.3
79118;BME280;68523;51.336;-0.846;2023-03-21T12:38:14;99935.94;;;11.9;86.1
79118;BME280;68523;51.336;-0.846;2023-03-21T12:43:41;99947.25;;;11.7;87.1
79118;BME280;68523;51.336;-0.846;2023-03-21T12:48:40;99938.94;;;11.8;86.7
79118;BME280;68523;51.336;-0.846;2023-03-21T12:54:13;99931.43;;;11.5;86.3
79118;BME280;68523;51.336;-0.846;2023-03-21T12:59:36;99924.13;;;12.1;84.8
79118;BME280;68523;51.336;-0.846;2023-03-21T13:04:41;99915.90;;;12.7;84.2
79118;BME280;68523;51.336;-0.846;2023-03-21T13:09:36;99914.31;;;12.4;84.6
79118;BME280;68523;51.336;-0.846;2023-03-21T13:15:24;99909.90;;;12.4;85.6
79118;BME280;68523;51.336;-0.846;2023-03-21T13:20:39;99907.23;;;12.4;84.6
79118;BME280;68523;51.336;-0.846;2023-03-21T13:26:08;99903.17;;;12.2;84.8
79118;BME280;68523;51.336;-0.846;2023-03-21T13:31:33;99902.70;;;12.9;82.4
79118;BME280;68523;51.336;-0.846;2023-03-21T13:36:35;99900.69;;;12.5;82.4
79118;BME280;68523;51.336;-0.846;2023-03-21T13:42:11;99910.48;;;12.7;81.1
79118;BME280;68523;51.336;-0.846;2023-03-21T13:47:39;99897.92;;;12.5;79.8
79118;BME280;68523;51.336;-0.846;2023-03-21T13:52:36;99903.76;;;12.7;80.4
79118;BME280;68523;51.336;-0.846;2023-03-21T14:03:37;99897.53;;;13.4;79.2
79118;BME280;68523;51.336;-0.846;2023-03-21T14:09:02;99902.05;;;12.8;81.6
79118;BME280;68523;51.336;-0.846;2023-03-21T14:14:05;99900.24;;;12.9;81.4
79118;BME280;68523;51.336;-0.846;2023-03-21T14:19:34;99897.82;;;13.0;81.2
79118;BME280;68523;51.336;-0.846;2023-03-21T14:25:10;99900.89;;;12.9;82.1
79118;BME280;68523;51.336;-0.846;2023-03-21T14:30:37;99900.61;;;12.2;83.6
79118;BME280;68523;51.336;-0.846;2023-03-21T14:35:35;99912.06;;;12.4;84.1
79118;BME280;68523;51.336;-0.846;2023-03-21T14:46:34;99909.13;;;12.3;83.1
79118;BME280;68523;51.336;-0.846;2023-03-21T14:51:38;99905.73;;;12.1;81.4
79118;BME280;68523;51.336;-0.846;2023-03-21T14:57:04;99909.18;;;12.2;80.5
79118;BME280;68523;51.336;-0.846;2023-03-21T15:02:10;99909.38;;;12.3;80.0
79118;BME280;68523;51.336;-0.846;2023-03-21T15:07:34;99903.74;;;12.5;78.9
79118;BME280;68523;51.336;-0.846;2023-03-21T15:12:36;99893.91;;;12.5;78.5
79118;BME280;68523;51.336;-0.846;2023-03-21T15:18:07;99893.43;;;13.1;76.9
79118;BME280;68523;51.336;-0.846;2023-03-21T15:23:36;99886.20;;;13.0;76.9
79118;BME280;68523;51.336;-0.846;2023-03-21T15:28:36;99885.00;;;12.5;76.5
79118;BME280;68523;51.336;-0.846;2023-03-21T15:34:06;99873.55;;;12.6;77.1
79118;BME280;68523;51.336;-0.846;2023-03-21T15:39:34;99865.94;;;12.6;78.6
79118;BME280;68523;51.336;-0.846;2023-03-21T15:44:37;99862.53;;;12.7;78.5
79118;BME280;68523;51.336;-0.846;2023-03-21T15:50:10;99858.03;;;12.4;79.7
79118;BME280;68523;51.336;-0.846;2023-03-21T15:55:42;99862.87;;;12.3;80.8
79118;BME280;68523;51.336;-0.846;2023-03-21T16:00:37;99861.00;;;12.2;79.8
79118;BME280;68523;51.336;-0.846;2023-03-21T16:05:35;99859.33;;;12.3;78.5
79118;BME280;68523;51.336;-0.846;2023-03-21T16:10:38;99852.95;;;12.1;77.2
79118;BME280;68523;51.336;-0.846;2023-03-21T16:16:02;99845.70;;;11.9;77.6
79118;BME280;68523;51.336;-0.846;2023-03-21T16:21:05;99849.37;;;12.0;78.6
79118;BME280;68523;51.336;-0.846;2023-03-21T16:26:36;99843.42;;;12.0;79.8
79118;BME280;68523;51.336;-0.846;2023-03-21T16:32:09;99842.92;;;11.9;81.5
79118;BME280;68523;51.336;-0.846;2023-03-21T16:37:34;99843.78;;;11.8;82.3
79118;BME280;68523;51.336;-0.846;2023-03-21T16:42:37;99846.71;;;11.7;82.7
79118;BME280;68523;51.336;-0.846;2023-03-21T16:48:01;99846.35;;;11.6;83.1
79118;BME280;68523;51.336;-0.846;2023-03-21T16:53:04;99849.80;;;11.6;82.8
79118;BME280;68523;51.336;-0.846;2023-03-21T16:58:33;99842.48;;;11.5;82.7
79118;BME280;68523;51.336;-0.846;2023-03-21T17:03:36;99845.49;;;11.5;79.8
79118;BME280;68523;51.336;-0.846;2023-03-21T17:09:05;99844.27;;;11.6;77.1
79118;BME280;68523;51.336;-0.846;2023-03-21T17:14:34;99829.85;;;11.6;77.5
79118;BME280;68523;51.336;-0.846;2023-03-21T17:19:37;99831.90;;;11.5;77.4
79118;BME280;68523;51.336;-0.846;2023-03-21T17:25:02;99823.18;;;11.4;78.3
79118;BME280;68523;51.336;-0.846;2023-03-21T17:30:15;99828.29;;;11.0;79.8
79118;BME280;68523;51.336;-0.846;2023-03-21T17:35:35;99836.36;;;11.1;80.5
79118;BME280;68523;51.336;-0.846;2023-03-21T17:40:38;99840.68;;;11.0;81.9
79118;BME280;68523;51.336;-0.846;2023-03-21T17:46:02;99837.99;;;10.6;83.9
79118;BME280;68523;51.336;-0.846;2023-03-21T17:51:05;99839.65;;;10.4;84.6
79118;BME280;68523;51.336;-0.846;2023-03-21T17:56:34;99846.64;;;10.3;85.1
79118;BME280;68523;51.336;-0.846;2023-03-21T18:01:37;99847.94;;;10.3;85.1
79118;BME280;68523;51.336;-0.846;2023-03-21T18:07:01;99845.75;;;10.0;86.6
79118;BME280;68523;51.336;-0.846;2023-03-21T18:12:04;99842.05;;;9.8;87.8
79118;BME280;68523;51.336;-0.846;2023-03-21T18:17:33;99835.49;;;9.7;88.1
79118;BME280;68523;51.336;-0.846;2023-03-21T18:22:36;99839.37;;;9.6;88.3
79118;BME280;68523;51.336;-0.846;2023-03-21T18:28:05;99831.51;;;9.5;88.3
79118;BME280;68523;51.336;-0.846;2023-03-21T18:33:34;99821.06;;;9.4;88.3
79118;BME280;68523;51.336;-0.846;2023-03-21T18:38:37;99826.16;;;9.3;88.3
79118;BME280;68523;51.336;-0.846;2023-03-21T18:44:01;99830.37;;;9.4;87.9
79118;BME280;68523;51.336;-0.846;2023-03-21T18:49:04;99834.53;;;9.3;88.1
79118;BME280;68523;51.336;-0.846;2023-03-21T18:54:33;99833.26;;;9.2;89.1
79118;BME280;68523;51.336;-0.846;2023-03-21T18:59:36;99836.75;;;9.2;89.9
79118;BME280;68523;51.336;-0.846;2023-03-21T19:05:05;99831.70;;;9.2;90.3
79118;BME280;68523;51.336;-0.846;2023-03-21T19:10:35;99833.88;;;9.3;90.1
79118;BME280;68523;51.336;-0.846;2023-03-21T19:15:37;99830.84;;;9.3;90.3
79118;BME280;68523;51.336;-0.846;2023-03-21T19:21:01;99831.75;;;9.3;90.6
79118;BME280;68523;51.336;-0.846;2023-03-21T19:26:04;99819.46;;;9.2;90.3
79118;BME280;68523;51.336;-0.846;2023-03-21T19:31:33;99815.56;;;9.2;90.6
79118;BME280;68523;51.336;-0.846;2023-03-21T19:36:35;99823.59;;;9.2;90.6
79118;BME280;68523;51.336;-0.846;2023-03-21T19:42:04;99825.77;;;9.2;90.9
79118;BME280;68523;51.336;-0.846;2023-03-21T19:47:33;99825.89;;;9.0;91.6
79118;BME280;68523;51.336;-0.846;2023-03-21T19:52:36;99819.59;;;9.0;91.7
79118;BME280;68523;51.336;-0.846;2023-03-21T19:58:05;99808.64;;;9.2;90.8
79118;BME280;68523;51.336;-0.846;2023-03-21T20:03:34;99809.10;;;9.1;91.0
79118;BME280;68523;51.336;-0.846;2023-03-21T20:08:37;99806.56;;;9.0;91.6
79118;BME280;68523;51.336;-0.846;2023-03-21T20:14:01;99797.99;;;9.1;91.1
79118;BME280;68523;51.336;-0.846;2023-03-21T20:19:05;99791.38;;;9.1;91.0
79118;BME280;68523;51.336;-0.846;2023-03-21T20:24:34;99783.73;;;9.1;90.9
79118;BME280;68523;51.336;-0.846;2023-03-21T20:29:37;99786.85;;;8.9;91.8
79118;BME280;68523;51.336;-0.846;2023-03-21T20:35:01;99778.91;;;9.0;91.9
79118;BME280;68523;51.336;-0.846;2023-03-21T20:40:06;99768.84;;;9.0;91.9
79118;BME280;68523;51.336;-0.846;2023-03-21T20:45:35;99762.51;;;9.0;92.2
79118;BME280;68523;51.336;-0.846;2023-03-21T20:50:37;99752.16;;;9.1;91.7
79118;BME280;68523;51.336;-0.846;2023-03-21T20:56:02;99738.36;;;9.1;91.3
79118;BME280;68523;51.336;-0.846;2023-03-21T21:01:06;99730.60;;;9.1;91.5
79118;BME280;68523;51.336;-0.846;2023-03-21T21:06:35;99729.22;;;9.3;90.9
79118;BME280;68523;51.336;-0.846;2023-03-21T21:12:05;99718.96;;;9.3;90.5
79118;BME280;68523;51.336;-0.846;2023-03-21T21:17:34;99707.36;;;9.4;90.0
79118;BME280;68523;51.336;-0.846;2023-03-21T21:22:37;99703.42;;;9.3;89.5
79118;BME280;68523;51.336;-0.846;2023-03-21T21:28:05;99691.36;;;9.3;89.3
79118;BME280;68523;51.336;-0.846;2023-03-21T21:33:35;99688.66;;;9.4;88.9
79118;BME280;68523;51.336;-0.846;2023-03-21T21:38:38;99681.35;;;9.3;88.8
79118;BME280;68523;51.336;-0.846;2023-03-21T21:44:02;99678.26;;;9.3;88.9
79118;BME280;68523;51.336;-0.846;2023-03-21T21:49:05;99668.07;;;9.5;88.8
79118;BME280;68523;51.336;-0.846;2023-03-21T21:54:34;99668.20;;;9.4;89.3
79118;BME280;68523;51.336;-0.846;2023-03-21T21:59:36;99660.37;;;9.4;88.9
79118;BME280;68523;51.336;-0.846;2023-03-21T22:05:06;99651.67;;;9.5;88.9
79118;BME280;68523;51.336;-0.846;2023-03-21T22:10:35;99642.12;;;9.6;88.6
79118;BME280;68523;51.336;-0.846;2023-03-21T22:16:05;99630.94;;;9.5;88.6
79118;BME280;68523;51.336;-0.846;2023-03-21T22:21:34;99617.69;;;9.5;89.0
79118;BME280;68523;51.336;-0.846;2023-03-21T22:26:36;99617.11;;;9.7;88.1
79118;BME280;68523;51.336;-0.846;2023-03-21T22:32:05;99606.54;;;9.6;88.2
79118;BME280;68523;51.336;-0.846;2023-03-21T22:37:36;99592.82;;;9.5;88.4
79118;BME280;68523;51.336;-0.846;2023-03-21T22:43:05;99593.04;;;9.4;88.8
79118;BME280;68523;51.336;-0.846;2023-03-21T22:48:34;99577.50;;;9.6;88.4
79118;BME280;68523;51.336;-0.846;2023-03-21T22:53:37;99564.72;;;9.4;88.6
79118;BME280;68523;51.336;-0.846;2023-03-21T22:59:06;99563.73;;;9.5;88.1
79118;BME280;68523;51.336;-0.846;2023-03-21T23:04:35;99560.20;;;9.5;88.0
79118;BME280;68523;51.336;-0.846;2023-03-21T23:09:38;99554.80;;;9.6;87.7
79118;BME280;68523;51.336;-0.846;2023-03-21T23:15:02;99550.53;;;9.5;87.9
79118;BME280;68523;51.336;-0.846;2023-03-21T23:20:05;99547.50;;;9.6;87.5
79118;BME280;68523;51.336;-0.846;2023-03-21T23:25:34;99548.80;;;9.6;87.6
79118;BME280;68523;51.336;-0.846;2023-03-21T23:30:36;99538.43;;;9.6;87.6
79118;BME280;68523;51.336;-0.846;2023-03-21T23:36:08;99532.42;;;9.6;88.0
79118;BME280;68523;51.336;-0.846;2023-03-21T23:41:37;99523.32;;;9.5;88.5
79118;BME280;68523;51.336;-0.846;2023-03-21T23:47:06;99522.11;;;9.5;88.7
79118;BME280;68523;51.336;-0.846;2023-03-21T23:52:35;99509.17;;;9.5;88.7
79118;BME280;68523;51.336;-0.846;2023-03-21T23:57:38;99507.32;;;9.6;88.5
